sensor_id;sensor_type;location;lat;lon;timestamp;pressure;altitude;pressure_sealevel;temperature;humidity
10261;BME280;5175;42.606;23.388;2023-08-07T00:02:24;93238.97;;;17.33;100.00
10261;BME280;5175;42.606;23.388;2023-08-07T00:04:51;93243.81;;;17.39;100.00
10261;BME280;5175;42.606;23.388;2023-08-07T00:07:19;93240.31;;;17.27;100.00
10261;BME280;5175;42.606;23.388;2023-08-07T00:09:46;93236.91;;;17.18;100.00
10261;BME280;5175;42.606;23.388;2023-08-07T00:12:13;93251.00;;;17.03;100.00
10261;BME280;5175;42.606;23.388;2023-08-07T00:14:40;93244.16;;;17.05;100.00
10261;BME280;5175;42.606;23.388;2023-08-07T00:17:06;93246.72;;;17.02;100.00
10261;BME280;5175;42.606;23.388;2023-08-07T00:19:33;93247.19;;;17.04;100.00
10261;BME280;5175;42.606;23.388;2023-08-07T00:22:00;93237.06;;;17.01;100.00
10261;BME280;5175;42.606;23.388;2023-08-07T00:24:28;93239.66;;;16.97;100.00
10261;BME280;5175;42.606;23.388;2023-08-07T00:26:55;93249.09;;;17.03;100.00
10261;BME280;5175;42.606;23.388;2023-08-07T00:29:22;93237.47;;;16.90;100.00
10261;BME280;5175;42.606;23.388;2023-08-07T00:31:48;93241.41;;;16.93;100.00
10261;BME280;5175;42.606;23.388;2023-08-07T00:34:15;93201.56;;;16.66;100.00
10261;BME280;5175;42.606;23.388;2023-08-07T00:36:42;93243.91;;;16.98;100.00
10261;BME280;5175;42.606;23.388;2023-08-07T00:39:08;93204.16;;;16.54;100.00
10261;BME280;5175;42.606;23.388;2023-08-07T00:41:36;93254.78;;;16.69;100.00
10261;BME280;5175;42.606;23.388;2023-08-07T00:44:03;93263.56;;;16.57;100.00
10261;BME280;5175;42.606;23.388;2023-08-07T00:46:31;93261.88;;;16.44;100.00
10261;BME280;5175;42.606;23.388;2023-08-07T00:48:58;93268.81;;;16.24;100.00
10261;BME280;5175;42.606;23.388;2023-08-07T00:51:25;93267.56;;;16.22;100.00
10261;BME280;5175;42.606;23.388;2023-08-07T00:53:52;93270.00;;;16.15;100.00
10261;BME280;5175;42.606;23.388;2023-08-07T00:56:19;93271.31;;;16.00;100.00
10261;BME280;5175;42.606;23.388;2023-08-07T00:58:47;93274.81;;;15.92;100.00
10261;BME280;5175;42.606;23.388;2023-08-07T01:01:13;93274.16;;;16.04;100.00
10261;BME280;5175;42.606;23.388;2023-08-07T01:03:40;93280.59;;;16.11;100.00
10261;BME280;5175;42.606;23.388;2023-08-07T01:06:07;93289.41;;;16.20;100.00
10261;BME280;5175;42.606;23.388;2023-08-07T01:08:34;93286.72;;;16.20;100.00
10261;BME280;5175;42.606;23.388;2023-08-07T01:11:21;93248.00;;;15.75;100.00
10261;BME280;5175;42.606;23.388;2023-08-07T01:13:55;93281.81;;;15.85;100.00
10261;BME280;5175;42.606;23.388;2023-08-07T01:16:29;93298.28;;;15.83;100.00
10261;BME280;5175;42.606;23.388;2023-08-07T01:19:00;93291.03;;;15.75;100.00
10261;BME280;5175;42.606;23.388;2023-08-07T01:21:28;93302.25;;;15.86;100.00
10261;BME280;5175;42.606;23.388;2023-08-07T01:23:56;93269.22;;;15.77;100.00
10261;BME280;5175;42.606;23.388;2023-08-07T01:26:23;93284.22;;;15.78;100.00
10261;BME280;5175;42.606;23.388;2023-08-07T01:28:54;93295.94;;;15.82;100.00
10261;BME280;5175;42.606;23.388;2023-08-07T01:31:25;93288.34;;;15.75;100.00
10261;BME280;5175;42.606;23.388;2023-08-07T01:33:57;93281.91;;;15.59;100.00
10261;BME280;5175;42.606;23.388;2023-08-07T01:36:27;93294.13;;;15.48;100.00
10261;BME280;5175;42.606;23.388;2023-08-07T01:38:56;93293.31;;;15.39;100.00
10261;BME280;5175;42.606;23.388;2023-08-07T01:41:24;93292.06;;;15.36;100.00
10261;BME280;5175;42.606;23.388;2023-08-07T01:43:50;93296.34;;;15.37;100.00
10261;BME280;5175;42.606;23.388;2023-08-07T01:46:18;93290.16;;;15.37;100.00
10261;BME280;5175;42.606;23.388;2023-08-07T01:48:45;93294.91;;;15.31;100.00
10261;BME280;5175;42.606;23.388;2023-08-07T01:51:11;93288.16;;;15.25;100.00
10261;BME280;5175;42.606;23.388;2023-08-07T01:53:38;93291.59;;;15.34;100.00
10261;BME280;5175;42.606;23.388;2023-08-07T01:56:06;93286.22;;;15.26;100.00
10261;BME280;5175;42.606;23.388;2023-08-07T01:58:33;93282.28;;;15.32;100.00
10261;BME280;5175;42.606;23.388;2023-08-07T02:01:00;93288.13;;;15.34;100.00
10261;BME280;5175;42.606;23.388;2023-08-07T02:03:26;93287.03;;;15.26;100.00
10261;BME280;5175;42.606;23.388;2023-08-07T02:05:53;93301.41;;;15.22;100.00
10261;BME280;5175;42.606;23.388;2023-08-07T02:08:20;93294.63;;;15.16;100.00
10261;BME280;5175;42.606;23.388;2023-08-07T02:10:46;93310.47;;;14.91;100.00
10261;BME280;5175;42.606;23.388;2023-08-07T02:13:14;93306.66;;;15.10;100.00
10261;BME280;5175;42.606;23.388;2023-08-07T02:15:41;93303.66;;;14.85;100.00
10261;BME280;5175;42.606;23.388;2023-08-07T02:18:08;93301.28;;;14.92;100.00
10261;BME280;5175;42.606;23.388;2023-08-07T02:20:34;93312.97;;;14.96;100.00
10261;BME280;5175;42.606;23.388;2023-08-07T02:23:01;93319.00;;;15.02;100.00
10261;BME280;5175;42.606;23.388;2023-08-07T02:25:28;93325.94;;;14.94;100.00
10261;BME280;5175;42.606;23.388;2023-08-07T02:27:54;93315.03;;;14.82;100.00
10261;BME280;5175;42.606;23.388;2023-08-07T02:30:22;93320.69;;;14.64;100.00
10261;BME280;5175;42.606;23.388;2023-08-07T02:32:49;93327.81;;;14.68;100.00
10261;BME280;5175;42.606;23.388;2023-08-07T02:35:16;93329.22;;;14.57;100.00
10261;BME280;5175;42.606;23.388;2023-08-07T02:37:43;93324.16;;;14.47;100.00
10261;BME280;5175;42.606;23.388;2023-08-07T02:40:10;93323.22;;;14.43;100.00
10261;BME280;5175;42.606;23.388;2023-08-07T02:42:40;93321.78;;;14.54;100.00
10261;BME280;5175;42.606;23.388;2023-08-07T02:45:08;93319.88;;;14.37;100.00
10261;BME280;5175;42.606;23.388;2023-08-07T02:47:36;93327.94;;;14.46;100.00
10261;BME280;5175;42.606;23.388;2023-08-07T02:50:03;93327.00;;;14.59;100.00
10261;BME280;5175;42.606;23.388;2023-08-07T02:52:30;93324.16;;;14.47;100.00
10261;BME280;5175;42.606;23.388;2023-08-07T02:54:56;93328.56;;;14.43;100.00
10261;BME280;5175;42.606;23.388;2023-08-07T02:57:23;93339.78;;;14.54;100.00
10261;BME280;5175;42.606;23.388;2023-08-07T02:59:50;93323.31;;;14.38;100.00
10261;BME280;5175;42.606;23.388;2023-08-07T03:02:17;93344.69;;;14.43;100.00
10261;BME280;5175;42.606;23.388;2023-08-07T03:04:45;93332.66;;;14.49;100.00
10261;BME280;5175;42.606;23.388;2023-08-07T03:07:12;93344.06;;;14.72;100.00
10261;BME280;5175;42.606;23.388;2023-08-07T03:09:38;93341.25;;;14.68;100.00
10261;BME280;5175;42.606;23.388;2023-08-07T03:12:05;93345.03;;;14.67;100.00
10261;BME280;5175;42.606;23.388;2023-08-07T03:14:32;93349.28;;;14.77;100.00
10261;BME280;5175;42.606;23.388;2023-08-07T03:16:59;93349.47;;;14.80;100.00
10261;BME280;5175;42.606;23.388;2023-08-07T03:19:26;93354.53;;;14.99;100.00
10261;BME280;5175;42.606;23.388;2023-08-07T03:21:54;93358.97;;;15.03;100.00
10261;BME280;5175;42.606;23.388;2023-08-07T03:24:20;93364.34;;;15.03;100.00
10261;BME280;5175;42.606;23.388;2023-08-07T03:26:47;93368.31;;;15.15;100.00
10261;BME280;5175;42.606;23.388;2023-08-07T03:29:14;93373.97;;;15.13;100.00
10261;BME280;5175;42.606;23.388;2023-08-07T03:31:41;93376.97;;;14.94;100.00
10261;BME280;5175;42.606;23.388;2023-08-07T03:34:08;93368.75;;;15.08;100.00
10261;BME280;5175;42.606;23.388;2023-08-07T03:36:34;93368.13;;;15.02;100.00
10261;BME280;5175;42.606;23.388;2023-08-07T03:39:02;93378.09;;;15.02;100.00
10261;BME280;5175;42.606;23.388;2023-08-07T03:41:29;93376.03;;;15.33;100.00
10261;BME280;5175;42.606;23.388;2023-08-07T03:43:56;93367.81;;;15.21;100.00
10261;BME280;5175;42.606;23.388;2023-08-07T03:46:22;93379.84;;;15.32;100.00
10261;BME280;5175;42.606;23.388;2023-08-07T03:48:49;93379.19;;;15.44;100.00
10261;BME280;5175;42.606;23.388;2023-08-07T03:51:16;93385.56;;;15.48;100.00
10261;BME280;5175;42.606;23.388;2023-08-07T03:53:43;93394.88;;;15.50;100.00
10261;BME280;5175;42.606;23.388;2023-08-07T03:56:11;93396.91;;;15.62;100.00
10261;BME280;5175;42.606;23.388;2023-08-07T03:58:38;93389.47;;;15.42;100.00
10261;BME280;5175;42.606;23.388;2023-08-07T04:01:05;93408.16;;;15.55;100.00
10261;BME280;5175;42.606;23.388;2023-08-07T04:03:31;93413.50;;;15.73;100.00
10261;BME280;5175;42.606;23.388;2023-08-07T04:05:58;93408.47;;;15.71;100.00
10261;BME280;5175;42.606;23.388;2023-08-07T04:08:25;93409.34;;;15.92;100.00
10261;BME280;5175;42.606;23.388;2023-08-07T04:10:59;93415.84;;;15.91;100.00
10261;BME280;5175;42.606;23.388;2023-08-07T04:13:29;93407.78;;;15.91;100.00
10261;BME280;5175;42.606;23.388;2023-08-07T04:15:55;93422.50;;;15.94;100.00
10261;BME280;5175;42.606;23.388;2023-08-07T04:18:22;93416.94;;;15.90;100.00
10261;BME280;5175;42.606;23.388;2023-08-07T04:20:49;93419.28;;;16.17;100.00
10261;BME280;5175;42.606;23.388;2023-08-07T04:23:17;93409.16;;;16.14;100.00
10261;BME280;5175;42.606;23.388;2023-08-07T04:25:44;93399.53;;;16.05;100.00
10261;BME280;5175;42.606;23.388;2023-08-07T04:28:12;93428.78;;;16.15;100.00
10261;BME280;5175;42.606;23.388;2023-08-07T04:30:40;93437.16;;;16.22;100.00
10261;BME280;5175;42.606;23.388;2023-08-07T04:33:07;93435.06;;;16.27;100.00
10261;BME280;5175;42.606;23.388;2023-08-07T04:35:34;93433.03;;;16.16;100.00
10261;BME280;5175;42.606;23.388;2023-08-07T04:38:00;93428.44;;;16.25;100.00
10261;BME280;5175;42.606;23.388;2023-08-07T04:40:27;93425.06;;;16.37;100.00
10261;BME280;5175;42.606;23.388;2023-08-07T04:42:54;93431.56;;;16.36;100.00
10261;BME280;5175;42.606;23.388;2023-08-07T04:45:21;93428.34;;;16.51;100.00
10261;BME280;5175;42.606;23.388;2023-08-07T04:47:49;93426.94;;;16.45;100.00
10261;BME280;5175;42.606;23.388;2023-08-07T04:50:16;93440.25;;;16.41;100.00
10261;BME280;5175;42.606;23.388;2023-08-07T04:52:43;93439.59;;;16.53;100.00
10261;BME280;5175;42.606;23.388;2023-08-07T04:55:09;93434.69;;;16.55;100.00
10261;BME280;5175;42.606;23.388;2023-08-07T04:57:36;93442.09;;;16.66;100.00
10261;BME280;5175;42.606;23.388;2023-08-07T05:00:04;93433.31;;;16.78;100.00
10261;BME280;5175;42.606;23.388;2023-08-07T05:02:31;93441.66;;;16.85;100.00
10261;BME280;5175;42.606;23.388;2023-08-07T05:04:59;93446.75;;;16.86;100.00
10261;BME280;5175;42.606;23.388;2023-08-07T05:07:27;93434.00;;;16.96;100.00
10261;BME280;5175;42.606;23.388;2023-08-07T05:09:53;93438.94;;;16.94;100.00
10261;BME280;5175;42.606;23.388;2023-08-07T05:12:20;93429.81;;;16.77;100.00
10261;BME280;5175;42.606;23.388;2023-08-07T05:14:48;93426.38;;;16.68;100.00
10261;BME280;5175;42.606;23.388;2023-08-07T05:17:14;93429.31;;;16.84;100.00
10261;BME280;5175;42.606;23.388;2023-08-07T05:19:41;93439.88;;;17.18;100.00
10261;BME280;5175;42.606;23.388;2023-08-07T05:22:09;93437.47;;;17.25;100.00
10261;BME280;5175;42.606;23.388;2023-08-07T05:24:36;93420.78;;;17.03;100.00
10261;BME280;5175;42.606;23.388;2023-08-07T05:27:05;93429.69;;;17.24;100.00
10261;BME280;5175;42.606;23.388;2023-08-07T05:29:33;93428.31;;;17.18;100.00
10261;BME280;5175;42.606;23.388;2023-08-07T05:32:00;93419.22;;;17.02;100.00
10261;BME280;5175;42.606;23.388;2023-08-07T05:34:28;93429.69;;;17.24;100.00
10261;BME280;5175;42.606;23.388;2023-08-07T05:36:55;93426.00;;;17.28;100.00
10261;BME280;5175;42.606;23.388;2023-08-07T05:39:23;93421.34;;;17.37;100.00
10261;BME280;5175;42.606;23.388;2023-08-07T05:41:49;93421.16;;;17.42;100.00
10261;BME280;5175;42.606;23.388;2023-08-07T05:44:16;93428.13;;;17.64;100.00
10261;BME280;5175;42.606;23.388;2023-08-07T05:46:43;93412.28;;;17.63;100.00
10261;BME280;5175;42.606;23.388;2023-08-07T05:49:09;93435.56;;;17.67;100.00
10261;BME280;5175;42.606;23.388;2023-08-07T05:51:36;93447.13;;;17.56;100.00
10261;BME280;5175;42.606;23.388;2023-08-07T05:54:03;93441.88;;;17.50;100.00
10261;BME280;5175;42.606;23.388;2023-08-07T05:56:31;93440.59;;;17.57;100.00
10261;BME280;5175;42.606;23.388;2023-08-07T05:58:57;93442.50;;;17.56;100.00
10261;BME280;5175;42.606;23.388;2023-08-07T06:01:24;93443.66;;;17.46;100.00
10261;BME280;5175;42.606;23.388;2023-08-07T06:03:55;93439.13;;;17.59;100.00
10261;BME280;5175;42.606;23.388;2023-08-07T06:06:22;93447.72;;;17.94;100.00
10261;BME280;5175;42.606;23.388;2023-08-07T06:08:49;93440.38;;;18.15;100.00
10261;BME280;5175;42.606;23.388;2023-08-07T06:11:16;93445.50;;;18.41;100.00
10261;BME280;5175;42.606;23.388;2023-08-07T06:13:44;93445.50;;;18.41;100.00
10261;BME280;5175;42.606;23.388;2023-08-07T06:16:11;93442.06;;;18.52;100.00
10261;BME280;5175;42.606;23.388;2023-08-07T06:18:37;93452.44;;;18.50;100.00
10261;BME280;5175;42.606;23.388;2023-08-07T06:21:04;93447.72;;;18.84;100.00
10261;BME280;5175;42.606;23.388;2023-08-07T06:23:32;93445.03;;;18.96;100.00
10261;BME280;5175;42.606;23.388;2023-08-07T06:25:59;93448.63;;;19.12;100.00
10261;BME280;5175;42.606;23.388;2023-08-07T06:28:29;93438.91;;;19.35;100.00
10261;BME280;5175;42.606;23.388;2023-08-07T06:31:01;93444.31;;;19.47;100.00
10261;BME280;5175;42.606;23.388;2023-08-07T06:33:28;93439.91;;;19.55;100.00
10261;BME280;5175;42.606;23.388;2023-08-07T06:35:55;93440.25;;;19.53;100.00
10261;BME280;5175;42.606;23.388;2023-08-07T06:38:22;93438.81;;;19.44;100.00
10261;BME280;5175;42.606;23.388;2023-08-07T06:40:49;93440.25;;;19.29;100.00
10261;BME280;5175;42.606;23.388;2023-08-07T06:43:15;93446.69;;;19.24;100.00
10261;BME280;5175;42.606;23.388;2023-08-07T06:45:42;93450.31;;;19.41;100.00
10261;BME280;5175;42.606;23.388;2023-08-07T06:48:10;93449.84;;;19.51;100.00
10261;BME280;5175;42.606;23.388;2023-08-07T06:50:37;93461.56;;;19.67;100.00
10261;BME280;5175;42.606;23.388;2023-08-07T06:53:03;93459.09;;;19.89;100.00
10261;BME280;5175;42.606;23.388;2023-08-07T06:55:30;93460.41;;;19.95;100.00
10261;BME280;5175;42.606;23.388;2023-08-07T06:57:58;93453.44;;;20.22;82.83
10261;BME280;5175;42.606;23.388;2023-08-07T07:00:25;93455.25;;;20.30;81.46
10261;BME280;5175;42.606;23.388;2023-08-07T07:02:51;93460.09;;;20.68;79.60
10261;BME280;5175;42.606;23.388;2023-08-07T07:05:19;93469.38;;;20.83;80.58
10261;BME280;5175;42.606;23.388;2023-08-07T07:07:46;93448.13;;;20.69;78.22
10261;BME280;5175;42.606;23.388;2023-08-07T07:10:13;93459.06;;;21.04;77.47
10261;BME280;5175;42.606;23.388;2023-08-07T07:12:39;93458.63;;;21.17;73.89
10261;BME280;5175;42.606;23.388;2023-08-07T07:15:07;93458.78;;;20.78;72.60
10261;BME280;5175;42.606;23.388;2023-08-07T07:17:34;93454.00;;;21.02;72.55
10261;BME280;5175;42.606;23.388;2023-08-07T07:20:01;93453.19;;;21.02;71.70
10261;BME280;5175;42.606;23.388;2023-08-07T07:22:29;93453.81;;;21.11;69.45
10261;BME280;5175;42.606;23.388;2023-08-07T07:24:56;93461.66;;;21.32;68.55
10261;BME280;5175;42.606;23.388;2023-08-07T07:27:22;93461.41;;;21.37;68.72
10261;BME280;5175;42.606;23.388;2023-08-07T07:29:51;93449.53;;;21.60;70.25
10261;BME280;5175;42.606;23.388;2023-08-07T07:32:18;93458.94;;;21.82;66.55
10261;BME280;5175;42.606;23.388;2023-08-07T07:34:45;93464.78;;;21.84;64.35
10261;BME280;5175;42.606;23.388;2023-08-07T07:37:11;93461.13;;;21.42;63.11
10261;BME280;5175;42.606;23.388;2023-08-07T07:39:41;93458.06;;;21.78;61.02
10261;BME280;5175;42.606;23.388;2023-08-07T07:42:07;93458.75;;;21.91;63.26
10261;BME280;5175;42.606;23.388;2023-08-07T07:44:34;93460.19;;;21.69;62.66
10261;BME280;5175;42.606;23.388;2023-08-07T07:47:01;93459.69;;;21.63;62.91
10261;BME280;5175;42.606;23.388;2023-08-07T07:49:28;93456.09;;;21.94;64.09
10261;BME280;5175;42.606;23.388;2023-08-07T07:51:55;93464.69;;;22.15;62.09
10261;BME280;5175;42.606;23.388;2023-08-07T07:54:21;93456.09;;;22.32;62.28
10261;BME280;5175;42.606;23.388;2023-08-07T07:56:50;93465.75;;;22.30;60.17
10261;BME280;5175;42.606;23.388;2023-08-07T07:59:17;93457.25;;;22.31;59.84
10261;BME280;5175;42.606;23.388;2023-08-07T08:01:43;93454.38;;;22.43;60.22
10261;BME280;5175;42.606;23.388;2023-08-07T08:04:10;93446.03;;;22.75;63.02
10261;BME280;5175;42.606;23.388;2023-08-07T08:06:37;93451.38;;;22.90;59.78
10261;BME280;5175;42.606;23.388;2023-08-07T08:09:04;93452.72;;;23.26;58.34
10261;BME280;5175;42.606;23.388;2023-08-07T08:11:30;93460.09;;;23.26;57.78
10261;BME280;5175;42.606;23.388;2023-08-07T08:13:58;93457.41;;;23.29;59.47
10261;BME280;5175;42.606;23.388;2023-08-07T08:16:25;93455.56;;;23.33;58.49
10261;BME280;5175;42.606;23.388;2023-08-07T08:18:52;93453.56;;;23.30;56.94
10261;BME280;5175;42.606;23.388;2023-08-07T08:21:18;93444.13;;;23.47;56.38
10261;BME280;5175;42.606;23.388;2023-08-07T08:23:45;93450.81;;;23.53;57.23
10261;BME280;5175;42.606;23.388;2023-08-07T08:26:12;93441.97;;;23.59;57.60
10261;BME280;5175;42.606;23.388;2023-08-07T08:28:38;93449.03;;;23.64;58.28
10261;BME280;5175;42.606;23.388;2023-08-07T08:31:07;93441.34;;;23.43;59.93
10261;BME280;5175;42.606;23.388;2023-08-07T08:33:34;93441.72;;;23.98;57.53
10261;BME280;5175;42.606;23.388;2023-08-07T08:36:00;93438.19;;;23.97;55.82
10261;BME280;5175;42.606;23.388;2023-08-07T08:38:27;93436.75;;;24.07;56.40
10261;BME280;5175;42.606;23.388;2023-08-07T08:40:58;93433.91;;;24.26;56.00
10261;BME280;5175;42.606;23.388;2023-08-07T08:43:30;93431.19;;;24.26;53.55
10261;BME280;5175;42.606;23.388;2023-08-07T08:46:01;93432.03;;;24.34;52.76
10261;BME280;5175;42.606;23.388;2023-08-07T08:48:30;93410.22;;;24.34;53.25
10261;BME280;5175;42.606;23.388;2023-08-07T08:51:01;93389.28;;;24.08;51.98
10261;BME280;5175;42.606;23.388;2023-08-07T08:53:29;93428.72;;;24.17;52.12
10261;BME280;5175;42.606;23.388;2023-08-07T08:55:56;93420.88;;;24.12;53.32
10261;BME280;5175;42.606;23.388;2023-08-07T08:58:23;93428.31;;;24.15;53.35
10261;BME280;5175;42.606;23.388;2023-08-07T09:00:50;93423.25;;;24.47;53.40
10261;BME280;5175;42.606;23.388;2023-08-07T09:03:18;93420.59;;;24.21;51.34
10261;BME280;5175;42.606;23.388;2023-08-07T09:05:47;93411.31;;;24.62;51.64
10261;BME280;5175;42.606;23.388;2023-08-07T09:08:14;93415.28;;;24.72;49.51
10261;BME280;5175;42.606;23.388;2023-08-07T09:10:41;93419.97;;;24.71;49.39
10261;BME280;5175;42.606;23.388;2023-08-07T09:13:12;93415.22;;;24.65;49.14
10261;BME280;5175;42.606;23.388;2023-08-07T09:15:40;93399.00;;;24.79;50.13
10261;BME280;5175;42.606;23.388;2023-08-07T09:18:13;93403.88;;;25.00;49.11
10261;BME280;5175;42.606;23.388;2023-08-07T09:20:40;93398.06;;;25.01;49.00
10261;BME280;5175;42.606;23.388;2023-08-07T09:23:09;93398.38;;;24.96;50.29
10261;BME280;5175;42.606;23.388;2023-08-07T09:25:35;93415.09;;;24.87;48.03
10261;BME280;5175;42.606;23.388;2023-08-07T09:28:04;93420.59;;;24.95;48.08
10261;BME280;5175;42.606;23.388;2023-08-07T09:30:31;93410.22;;;25.14;49.14
10261;BME280;5175;42.606;23.388;2023-08-07T09:32:59;93388.28;;;25.00;48.17
10261;BME280;5175;42.606;23.388;2023-08-07T09:35:26;93401.63;;;25.12;48.88
10261;BME280;5175;42.606;23.388;2023-08-07T09:37:53;93400.69;;;25.41;47.89
10261;BME280;5175;42.606;23.388;2023-08-07T09:40:22;93399.16;;;25.47;48.32
10261;BME280;5175;42.606;23.388;2023-08-07T09:42:50;93399.25;;;25.58;47.03
10261;BME280;5175;42.606;23.388;2023-08-07T09:45:20;93399.69;;;25.67;48.29
10261;BME280;5175;42.606;23.388;2023-08-07T09:47:56;93392.66;;;25.63;46.33
10261;BME280;5175;42.606;23.388;2023-08-07T09:50:24;93388.78;;;25.74;46.20
10261;BME280;5175;42.606;23.388;2023-08-07T09:52:51;93395.31;;;25.56;48.22
10261;BME280;5175;42.606;23.388;2023-08-07T09:55:18;93404.34;;;25.63;47.39
10261;BME280;5175;42.606;23.388;2023-08-07T09:57:46;93388.41;;;25.76;46.12
10261;BME280;5175;42.606;23.388;2023-08-07T10:00:13;93399.91;;;26.06;48.76
10261;BME280;5175;42.606;23.388;2023-08-07T10:02:40;93407.88;;;25.64;45.90
10261;BME280;5175;42.606;23.388;2023-08-07T10:05:09;93401.97;;;25.55;45.77
10261;BME280;5175;42.606;23.388;2023-08-07T10:07:37;93405.75;;;25.43;46.66
10261;BME280;5175;42.606;23.388;2023-08-07T10:10:05;93408.66;;;25.64;46.08
10261;BME280;5175;42.606;23.388;2023-08-07T10:12:32;93402.06;;;25.76;46.56
10261;BME280;5175;42.606;23.388;2023-08-07T10:15:01;93397.16;;;26.06;47.36
10261;BME280;5175;42.606;23.388;2023-08-07T10:17:28;93392.97;;;26.26;45.96
10261;BME280;5175;42.606;23.388;2023-08-07T10:19:56;93401.22;;;26.44;44.38
10261;BME280;5175;42.606;23.388;2023-08-07T10:22:24;93390.28;;;26.58;43.07
10261;BME280;5175;42.606;23.388;2023-08-07T10:24:53;93360.91;;;26.23;44.63
10261;BME280;5175;42.606;23.388;2023-08-07T10:27:21;93400.50;;;26.71;44.46
10261;BME280;5175;42.606;23.388;2023-08-07T10:29:53;93407.19;;;26.92;45.22
10261;BME280;5175;42.606;23.388;2023-08-07T10:32:25;93401.72;;;26.95;45.65
10261;BME280;5175;42.606;23.388;2023-08-07T10:34:53;93396.19;;;26.74;47.09
10261;BME280;5175;42.606;23.388;2023-08-07T10:37:33;93399.75;;;26.78;46.66
10261;BME280;5175;42.606;23.388;2023-08-07T10:40:05;93400.56;;;27.03;45.57
10261;BME280;5175;42.606;23.388;2023-08-07T10:42:50;93392.75;;;27.19;43.64
10261;BME280;5175;42.606;23.388;2023-08-07T10:45:17;93387.25;;;27.12;43.81
10261;BME280;5175;42.606;23.388;2023-08-07T10:48:00;93390.31;;;26.65;43.10
10261;BME280;5175;42.606;23.388;2023-08-07T10:50:29;93400.19;;;27.01;44.90
10261;BME280;5175;42.606;23.388;2023-08-07T10:52:56;93388.34;;;26.58;43.74
10261;BME280;5175;42.606;23.388;2023-08-07T10:55:23;93389.56;;;26.79;43.60
10261;BME280;5175;42.606;23.388;2023-08-07T10:57:50;93390.78;;;26.95;43.44
10261;BME280;5175;42.606;23.388;2023-08-07T11:00:18;93386.47;;;26.80;43.07
10261;BME280;5175;42.606;23.388;2023-08-07T11:02:48;93382.91;;;26.72;44.37
10261;BME280;5175;42.606;23.388;2023-08-07T11:05:17;93377.88;;;27.13;43.19
10261;BME280;5175;42.606;23.388;2023-08-07T11:07:45;93383.72;;;27.40;42.81
10261;BME280;5175;42.606;23.388;2023-08-07T11:10:13;93382.56;;;27.23;41.25
10261;BME280;5175;42.606;23.388;2023-08-07T11:12:41;93380.59;;;26.85;42.94
10261;BME280;5175;42.606;23.388;2023-08-07T11:15:12;93377.47;;;26.97;42.10
10261;BME280;5175;42.606;23.388;2023-08-07T11:17:38;93364.41;;;26.20;42.82
10261;BME280;5175;42.606;23.388;2023-08-07T11:20:07;93361.56;;;25.99;45.74
10261;BME280;5175;42.606;23.388;2023-08-07T11:22:38;93358.19;;;26.27;44.45
10261;BME280;5175;42.606;23.388;2023-08-07T11:25:07;93362.16;;;26.71;42.67
10261;BME280;5175;42.606;23.388;2023-08-07T11:27:39;93355.19;;;27.06;42.76
10261;BME280;5175;42.606;23.388;2023-08-07T11:30:07;93350.47;;;27.31;44.48
10261;BME280;5175;42.606;23.388;2023-08-07T11:32:36;93338.28;;;27.67;43.58
10261;BME280;5175;42.606;23.388;2023-08-07T11:35:04;93346.31;;;28.20;40.62
10261;BME280;5175;42.606;23.388;2023-08-07T11:37:32;93338.28;;;28.50;39.21
10261;BME280;5175;42.606;23.388;2023-08-07T11:40:01;93344.16;;;28.63;38.35
10261;BME280;5175;42.606;23.388;2023-08-07T11:42:28;93334.50;;;28.96;41.78
10261;BME280;5175;42.606;23.388;2023-08-07T11:44:55;93341.88;;;29.50;40.92
10261;BME280;5175;42.606;23.388;2023-08-07T11:47:22;93339.88;;;29.54;40.47
10261;BME280;5175;42.606;23.388;2023-08-07T11:49:48;93325.81;;;29.86;42.39
10261;BME280;5175;42.606;23.388;2023-08-07T11:52:15;93345.84;;;29.46;38.82
10261;BME280;5175;42.606;23.388;2023-08-07T11:54:42;93345.34;;;29.10;39.96
10261;BME280;5175;42.606;23.388;2023-08-07T11:57:16;93337.75;;;29.32;42.83
10261;BME280;5175;42.606;23.388;2023-08-07T11:59:47;93343.47;;;29.48;40.74
10261;BME280;5175;42.606;23.388;2023-08-07T12:02:14;93343.44;;;29.51;39.13
10261;BME280;5175;42.606;23.388;2023-08-07T12:04:41;93350.34;;;29.26;37.15
10261;BME280;5175;42.606;23.388;2023-08-07T12:07:08;93337.28;;;29.37;37.80
10261;BME280;5175;42.606;23.388;2023-08-07T12:09:36;93331.38;;;29.38;39.10
10261;BME280;5175;42.606;23.388;2023-08-07T12:12:03;93335.84;;;29.66;40.11
10261;BME280;5175;42.606;23.388;2023-08-07T12:14:32;93339.38;;;30.00;37.48
10261;BME280;5175;42.606;23.388;2023-08-07T12:17:01;93330.41;;;29.96;38.46
10261;BME280;5175;42.606;23.388;2023-08-07T12:19:36;93327.66;;;30.26;38.86
10261;BME280;5175;42.606;23.388;2023-08-07T12:22:06;93337.63;;;30.17;36.58
10261;BME280;5175;42.606;23.388;2023-08-07T12:24:35;93338.69;;;29.93;39.73
10261;BME280;5175;42.606;23.388;2023-08-07T12:27:01;93328.25;;;29.36;36.93
10261;BME280;5175;42.606;23.388;2023-08-07T12:29:28;93338.59;;;29.62;38.28
10261;BME280;5175;42.606;23.388;2023-08-07T12:31:56;93330.28;;;29.32;37.02
10261;BME280;5175;42.606;23.388;2023-08-07T12:34:24;93326.56;;;29.05;38.97
10261;BME280;5175;42.606;23.388;2023-08-07T12:36:51;93328.09;;;29.09;38.08
10261;BME280;5175;42.606;23.388;2023-08-07T12:39:18;93333.66;;;28.40;38.40
10261;BME280;5175;42.606;23.388;2023-08-07T12:41:44;93331.88;;;28.09;41.10
10261;BME280;5175;42.606;23.388;2023-08-07T12:44:11;93322.88;;;27.98;38.96
10261;BME280;5175;42.606;23.388;2023-08-07T12:46:38;93331.91;;;27.95;39.90
10261;BME280;5175;42.606;23.388;2023-08-07T12:49:08;93331.09;;;27.98;43.72
10261;BME280;5175;42.606;23.388;2023-08-07T12:51:35;93342.53;;;27.82;39.79
10261;BME280;5175;42.606;23.388;2023-08-07T12:54:02;93330.88;;;27.43;40.09
10261;BME280;5175;42.606;23.388;2023-08-07T12:56:29;93327.00;;;27.05;44.10
10261;BME280;5175;42.606;23.388;2023-08-07T12:58:56;93341.44;;;27.30;43.17